Time;durP1;ratioP1;P1;durP2;ratioP2;P2;SDS_P1;SDS_P2;PMS_P1;PMS_P2;Temp;Humidity;BMP_temperature;BMP_pressure;BME280_temperature;BME280_humidity;BME280_pressure;Samples;Min_cycle;Max_cycle;Signal;HPM_P1;HPM_P2
2022/11/29 00:00:23;;;;;;;3.47;2.50;;;;;;;;;;4394103;32;60357;-65
2022/11/29 00:03:09;;;;;;;5.07;2.90;;;;;;;;;;4393580;32;69643;-66
2022/11/29 00:05:56;;;;;;;3.85;2.72;;;;;;;;;;4390392;32;69207;-65
2022/11/29 00:08:43;;;;;;;3.72;2.55;;;;;;;;;;4372888;32;66558;-66
2022/11/29 00:14:39;;;;;;;5.50;3.05;;;;;;;;;;4383614;32;69134;-65
2022/11/29 00:17:25;;;;;;;4.10;2.42;;;;;;;;;;4385158;32;68361;-66
2022/11/29 00:20:12;;;;;;;;;;;;;;;;;;4383543;32;68480;-66
2022/11/29 00:22:59;;;;;;;4.00;2.50;;;;;;;;;;4383384;32;72156;-66
2022/11/29 00:25:46;;;;;;;3.37;2.33;;;;;;;;;;4361763;32;65747;-66
2022/11/29 00:28:33;;;;;;;4.47;2.60;;;;;;;;;;4384947;32;67779;-66
2022/11/29 00:31:22;;;;;;;3.92;2.50;;;;;;;;;;4372439;32;60040;-66
2022/11/29 00:34:10;;;;;;;3.47;2.30;;;;;;;;;;4371741;32;71105;-65
2022/11/29 00:36:57;;;;;;;3.67;2.17;;;;;;;;;;4371875;32;67051;-65
2022/11/29 00:39:43;;;;;;;4.18;2.60;;;;;;;;;;4384416;32;66641;-65
2022/11/29 00:42:31;;;;;;;5.10;2.87;;;;;;;;;;4372145;32;61039;-65
2022/11/29 00:45:17;;;;;;;4.55;2.80;;;;;;;;;;4384340;32;70494;-66
2022/11/29 00:48:04;;;;;;;;;;;;;;;;;;4383399;32;69516;-65
2022/11/29 00:50:50;;;;;;;5.93;3.08;;;;;;;;;;4360928;32;68268;-66
2022/11/29 00:53:37;;;;;;;4.72;2.90;;;;;;;;;;4382866;32;71703;-66
2022/11/29 00:56:23;;;;;;;4.82;3.00;;;;;;;;;;4372222;32;66154;-65
2022/11/29 00:59:10;;;;;;;3.40;2.53;;;;;;;;;;4383109;32;66539;-66
2022/11/29 01:01:57;;;;;;;3.50;2.65;;;;;;;;;;4371572;32;67101;-65
2022/11/29 01:04:43;;;;;;;6.18;3.00;;;;;;;;;;4371377;32;72304;-66
2022/11/29 01:07:30;;;;;;;4.22;2.80;;;;;;;;;;4372141;32;66183;-66
2022/11/29 01:10:17;;;;;;;4.82;2.67;;;;;;;;;;4382365;32;68849;-65
2022/11/29 01:13:03;;;;;;;;;;;;;;;;;;4372206;32;60811;-65
2022/11/29 01:15:58;;;;;;;3.95;2.70;;;;;;;;;;4372061;32;70011;-65
2022/11/29 01:18:44;;;;;;;5.80;3.37;;;;;;;;;;4381310;32;68823;-66
2022/11/29 01:21:31;;;;;;;4.37;3.03;;;;;;;;;;4382213;32;68242;-66
2022/11/29 01:24:17;;;;;;;4.85;3.00;;;;;;;;;;4382813;32;58728;-65
2022/11/29 01:27:04;;;;;;;6.82;3.60;;;;;;;;;;4383810;32;70063;-66
2022/11/29 01:29:50;;;;;;;5.20;3.15;;;;;;;;;;4382510;32;68424;-65
2022/11/29 01:32:37;;;;;;;5.93;3.78;;;;;;;;;;4361473;32;66349;-65
2022/11/29 01:35:23;;;;;;;;;;;;;;;;;;4371648;32;72170;-66
2022/11/29 01:38:10;;;;;;;8.80;4.00;;;;;;;;;;4382796;32;66455;-66
2022/11/29 01:41:06;;;;;;;5.95;3.45;;;;;;;;;;4371148;32;66905;-65
2022/11/29 01:43:57;;;;;;;5.18;3.22;;;;;;;;;;4382688;32;59463;-65
2022/11/29 01:46:45;;;;;;;4.57;3.10;;;;;;;;;;4370979;32;71820;-65
2022/11/29 01:49:38;;;;;;;7.97;2.80;;;;;;;;;;4382015;32;65736;-65
2022/11/29 01:52:27;;;;;;;5.55;3.28;;;;;;;;;;4361348;32;67462;-65
2022/11/29 01:55:14;;;;;;;4.35;3.17;;;;;;;;;;4382236;32;59105;-67
2022/11/29 01:58:01;;;;;;;5.70;3.35;;;;;;;;;;4371749;32;69437;-65
2022/11/29 02:00:48;;;;;;;5.55;3.78;;;;;;;;;;4360164;32;70120;-65
2022/11/29 02:03:34;;;;;;;5.62;2.90;;;;;;;;;;4371687;32;66537;-65
2022/11/29 02:06:22;;;;;;;5.37;3.12;;;;;;;;;;4371609;32;72093;-65
2022/11/29 02:09:22;;;;;;;6.93;3.30;;;;;;;;;;4382387;32;65502;-65
2022/11/29 02:12:09;;;;;;;5.93;3.78;;;;;;;;;;4361310;32;67468;-66
2022/11/29 02:15:06;;;;;;;7.07;3.72;;;;;;;;;;4360222;32;68191;-66
2022/11/29 02:18:02;;;;;;;6.05;3.50;;;;;;;;;;4381961;32;71965;-65
2022/11/29 02:21:06;;;;;;;5.93;3.00;;;;;;;;;;4382073;32;64839;-66
2022/11/29 02:24:14;;;;;;;6.60;3.03;;;;;;;;;;4382037;32;67739;-66
2022/11/29 02:27:10;;;;;;;5.85;3.83;;;;;;;;;;4382116;32;60808;-65
2022/11/29 02:30:08;;;;;;;5.32;3.70;;;;;;;;;;4382819;32;69611;-66
2022/11/29 02:32:57;;;;;;;;;;;;;;;;;;4371327;32;69203;-66
2022/11/29 02:36:12;;;;;;;7.18;2.97;;;;;;;;;;4383366;32;67774;-65
2022/11/29 02:39:36;;;;;;;4.53;3.15;;;;;;;;;;4381962;32;70793;-66
2022/11/29 02:42:50;;;;;;;6.20;3.47;;;;;;;;;;4381694;32;70487;-66
2022/11/29 02:46:01;;;;;;;5.57;3.30;;;;;;;;;;4381632;32;69301;-65
2022/11/29 02:48:54;;;;;;;4.40;2.97;;;;;;;;;;4382865;32;68000;-66
2022/11/29 02:52:02;;;;;;;5.22;3.28;;;;;;;;;;4381377;32;71768;-65
2022/11/29 02:55:03;;;;;;;6.55;3.85;;;;;;;;;;4349503;32;66936;-65
2022/11/29 02:58:27;;;;;;;7.07;3.62;;;;;;;;;;4370460;32;67743;-66
2022/11/29 03:01:47;;;;;;;11.10;4.57;;;;;;;;;;4383238;32;60002;-65
2022/11/29 03:04:49;;;;;;;7.07;3.83;;;;;;;;;;4370761;32;69711;-65
2022/11/29 03:07:54;;;;;;;9.27;4.45;;;;;;;;;;4382755;32;69164;-65
2022/11/29 03:10:59;;;;;;;4.87;2.97;;;;;;;;;;4382826;32;66800;-65
2022/11/29 03:14:10;;;;;;;9.45;4.85;;;;;;;;;;4359612;32;60985;-66
2022/11/29 03:17:03;;;;;;;7.72;4.10;;;;;;;;;;4380631;32;71314;-65
2022/11/29 03:20:06;;;;;;;7.43;4.00;;;;;;;;;;4382763;32;69482;-66
2022/11/29 03:22:59;;;;;;;8.32;3.97;;;;;;;;;;4381415;32;67690;-65
2022/11/29 03:26:06;;;;;;;6.68;3.70;;;;;;;;;;4382635;32;71818;-65
